createdAt,value
2023-03-22T00:01:19.872Z,99.90
2023-03-22T00:06:23.240Z,99.90
2023-03-22T00:11:26.770Z,99.90
2023-03-22T00:16:31.594Z,99.90
2023-03-22T00:21:34.903Z,99.90
2023-03-22T00:26:38.425Z,99.90
2023-03-22T00:31:43.257Z,99.90
2023-03-22T00:36:46.583Z,99.90
2023-03-22T00:41:49.873Z,99.90
2023-03-22T00:46:54.847Z,99.90
2023-03-22T00:51:58.304Z,99.90
2023-03-22T00:57:01.493Z,99.90
2023-03-22T01:02:08.408Z,99.90
2023-03-22T01:07:11.689Z,99.90
2023-03-22T01:12:15.712Z,99.90
2023-03-22T01:17:20.498Z,99.90
2023-03-22T01:22:23.778Z,99.90
2023-03-22T01:27:27.134Z,99.90
2023-03-22T01:32:31.772Z,99.90
2023-03-22T01:37:35.152Z,99.90
2023-03-22T01:42:38.455Z,99.90
2023-03-22T01:47:46.856Z,99.90
2023-03-22T01:52:52.003Z,99.90
2023-03-22T01:57:56.268Z,99.90
2023-03-22T02:03:01.321Z,99.90
2023-03-22T02:08:05.559Z,99.90
2023-03-22T02:13:34.186Z,99.90
2023-03-22T02:19:03.505Z,99.90
2023-03-22T02:24:43.884Z,99.90
2023-03-22T02:29:52.649Z,99.90
2023-03-22T02:35:28.268Z,99.90
2023-03-22T02:40:39.741Z,99.90
2023-03-22T02:45:48.784Z,99.90
2023-03-22T02:50:55.829Z,99.90
2023-03-22T02:56:04.642Z,99.90
2023-03-22T03:01:12.483Z,99.90
2023-03-22T03:06:20.258Z,99.90
2023-03-22T03:11:25.339Z,99.90
2023-03-22T03:16:34.634Z,99.90
2023-03-22T03:21:46.510Z,99.90
2023-03-22T03:26:56.949Z,99.90
2023-03-22T03:32:08.094Z,99.90
2023-03-22T03:37:15.944Z,99.90
2023-03-22T03:42:22.949Z,99.90
2023-03-22T03:47:29.472Z,99.90
2023-03-22T03:52:32.756Z,99.90
2023-03-22T03:57:37.313Z,99.90
2023-03-22T04:02:40.633Z,99.90
2023-03-22T04:07:43.833Z,99.90
2023-03-22T04:12:48.508Z,99.90
2023-03-22T04:17:53.851Z,99.90
2023-03-22T04:22:58.120Z,99.90
2023-03-22T04:28:04.348Z,99.90
2023-03-22T04:33:08.091Z,99.90
2023-03-22T04:38:12.148Z,99.90
2023-03-22T04:43:19.080Z,99.90
2023-03-22T04:48:22.546Z,99.90
2023-03-22T04:53:27.590Z,99.90
2023-03-22T04:58:32.238Z,99.90
2023-03-22T05:03:35.515Z,99.90
2023-03-22T05:08:39.165Z,99.90
2023-03-22T05:13:44.369Z,99.90
2023-03-22T05:18:47.935Z,99.90
2023-03-22T05:23:51.657Z,99.90
2023-03-22T05:28:57.322Z,99.90
2023-03-22T05:34:01.432Z,99.90
2023-03-22T05:39:05.243Z,99.90
2023-03-22T05:44:09.852Z,99.90
2023-03-22T05:49:13.148Z,99.90
2023-03-22T05:54:16.989Z,99.90
2023-03-22T05:59:21.693Z,99.90
2023-03-22T06:04:25.044Z,99.90
2023-03-22T06:09:28.639Z,99.90
2023-03-22T06:14:33.263Z,99.90
2023-03-22T06:19:36.540Z,99.90
2023-03-22T06:24:40.869Z,99.90
2023-03-22T06:29:49.771Z,99.90
2023-03-22T06:34:53.060Z,99.90
2023-03-22T06:39:56.420Z,99.90
2023-03-22T06:45:02.420Z,99.90
2023-03-22T06:50:06.489Z,99.90
2023-03-22T06:55:11.967Z,99.90
2023-03-22T07:00:19.486Z,99.90
2023-03-22T07:05:22.945Z,99.90
2023-03-22T07:10:29.469Z,99.90
2023-03-22T07:15:34.590Z,99.90
2023-03-22T07:20:43.966Z,99.90
2023-03-22T07:25:48.462Z,99.30
2023-03-22T07:31:01.344Z,97.30
2023-03-22T07:36:04.953Z,97.00
2023-03-22T07:41:08.464Z,96.80
2023-03-22T07:46:13.261Z,96.80
2023-03-22T07:51:17.123Z,95.30
2023-03-22T07:56:20.633Z,95.20
2023-03-22T08:01:31.444Z,94.10
2023-03-22T08:06:38.508Z,92.90
2023-03-22T08:11:41.981Z,91.70
2023-03-22T08:16:48.382Z,91.10
2023-03-22T08:21:52.861Z,91.20
2023-03-22T08:26:56.736Z,92.20
2023-03-22T08:32:02.614Z,93.90
2023-03-22T08:37:06.252Z,92.50
2023-03-22T08:42:10.375Z,91.70
2023-03-22T08:47:15.175Z,91.80
2023-03-22T08:52:18.978Z,91.80
2023-03-22T08:57:23.992Z,91.90
2023-03-22T09:02:30.615Z,91.90
2023-03-22T09:07:34.397Z,91.70
2023-03-22T09:12:38.058Z,91.80
2023-03-22T09:17:44.739Z,92.60
2023-03-22T09:22:47.963Z,91.90
2023-03-22T09:27:51.878Z,93.00
2023-03-22T09:38:23.310Z,93.40
2023-03-22T09:43:26.707Z,93.90
2023-03-22T09:48:36.060Z,94.70
2023-03-22T09:53:39.278Z,93.90
2023-03-22T09:58:48.914Z,93.90
2023-03-22T10:04:27.883Z,93.30
2023-03-22T10:09:38.774Z,94.20
2023-03-22T10:14:47.559Z,93.90
2023-03-22T10:19:58.830Z,96.10
2023-03-22T10:25:06.223Z,96.30
2023-03-22T10:30:22.741Z,97.50
2023-03-22T10:35:27.215Z,97.40
2023-03-22T10:40:35.312Z,98.10
2023-03-22T10:45:39.575Z,96.30
2023-03-22T10:50:46.436Z,97.60
2023-03-22T10:55:51.187Z,97.80
2023-03-22T11:00:57.498Z,97.20
2023-03-22T11:06:03.085Z,97.60
2023-03-22T11:11:15.719Z,98.00
2023-03-22T11:16:20.326Z,98.20
2023-03-22T11:21:29.901Z,96.70
2023-03-22T11:26:41.548Z,96.00
2023-03-22T11:32:00.295Z,96.70
2023-03-22T11:37:10.677Z,96.50
2023-03-22T11:42:21.825Z,97.80
2023-03-22T11:47:32.034Z,96.40
2023-03-22T11:52:35.449Z,96.90
2023-03-22T11:57:43.532Z,95.00
2023-03-22T12:02:51.481Z,94.50
2023-03-22T12:08:03.217Z,96.10
2023-03-22T12:13:19.065Z,95.90
2023-03-22T12:18:30.181Z,95.60
2023-03-22T12:23:37.626Z,95.20
2023-03-22T12:28:48.994Z,95.20
2023-03-22T12:33:55.142Z,94.70
2023-03-22T12:39:03.699Z,94.20
2023-03-22T12:44:21.050Z,94.80
2023-03-22T12:49:35.009Z,94.70
2023-03-22T12:54:47.487Z,95.20
2023-03-22T12:59:56.056Z,94.40
2023-03-22T13:05:00.985Z,94.20
2023-03-22T13:10:50.684Z,93.40
2023-03-22T13:16:05.077Z,93.30
2023-03-22T13:21:14.227Z,93.00
2023-03-22T13:26:18.160Z,93.40
2023-03-22T13:31:42.613Z,93.20
2023-03-22T13:36:55.116Z,93.10
2023-03-22T13:42:20.598Z,94.10
2023-03-22T13:47:37.739Z,93.20
2023-03-22T13:52:43.421Z,94.10
2023-03-22T13:57:50.512Z,93.40
2023-03-22T14:02:55.997Z,94.30
2023-03-22T14:08:01.118Z,93.00
2023-03-22T14:13:12.650Z,93.20
2023-03-22T14:18:22.215Z,93.30
